Time;durP1;ratioP1;P1;durP2;ratioP2;P2;SDS_P1;SDS_P2;PMS_P1;PMS_P2;Temp;Humidity;BMP_temperature;BMP_pressure;BME280_temperature;BME280_humidity;BME280_pressure;Samples;Min_cycle;Max_cycle;Signal;HPM_P1;HPM_P2
2023/06/05 00:00:31;;;;;;;10.25;4.50;;;;;;;;;;5085864;28;20063;-75
2023/06/05 00:03:01;;;;;;;8.00;3.90;;;;;;;;;;5085023;28;20044;-75
2023/06/05 00:05:31;;;;;;;7.47;4.43;;;;;;;;;;5085049;28;20569;-74
2023/06/05 00:08:01;;;;;;;7.60;4.00;;;;;;;;;;5084931;28;20032;-76
2023/06/05 00:10:33;;;;;;;15.68;5.25;;;;;;;;;;5085154;28;20824;-77
2023/06/05 00:13:04;;;;;;;16.08;5.03;;;;;;;;;;5085350;28;20402;-74
2023/06/05 00:15:37;;;;;;;16.00;5.25;;;;;;;;;;5085424;28;20047;-76
2023/06/05 00:18:09;;;;;;;12.65;5.13;;;;;;;;;;5084799;28;20070;-75
2023/06/05 00:20:42;;;;;;;12.15;5.72;;;;;;;;;;5084466;28;20414;-75
2023/06/05 00:23:13;;;;;;;9.93;4.80;;;;;;;;;;5084720;28;20063;-76
2023/06/05 00:25:45;;;;;;;12.52;4.90;;;;;;;;;;5082916;28;20060;-76
2023/06/05 00:28:15;;;;;;;9.45;4.82;;;;;;;;;;5083615;28;20745;-75
2023/06/05 00:30:47;;;;;;;7.70;4.45;;;;;;;;;;5083042;28;20075;-75
2023/06/05 00:33:18;;;;;;;13.75;4.90;;;;;;;;;;5083768;28;20044;-75
2023/06/05 00:35:47;;;;;;;10.60;4.43;;;;;;;;;;5088840;28;20048;-74
2023/06/05 00:38:18;;;;;;;11.90;4.78;;;;;;;;;;5088722;28;20502;-76
2023/06/05 00:40:49;;;;;;;12.93;4.82;;;;;;;;;;5088813;28;20055;-76
2023/06/05 00:43:20;;;;;;;16.13;5.15;;;;;;;;;;5088771;28;20048;-76
2023/06/05 00:45:58;;;;;;;20.98;5.15;;;;;;;;;;5088582;28;20052;-75
2023/06/05 00:48:30;;;;;;;14.25;5.07;;;;;;;;;;5088481;28;20418;-75
2023/06/05 00:51:01;;;;;;;20.83;5.97;;;;;;;;;;5088347;28;20040;-76
2023/06/05 00:53:36;;;;;;;14.32;5.10;;;;;;;;;;5088754;28;20074;-77
2023/06/05 00:56:09;;;;;;;14.95;4.88;;;;;;;;;;5068919;28;20063;-74
2023/06/05 00:58:39;;;;;;;11.15;4.40;;;;;;;;;;5088441;28;20051;-76
2023/06/05 01:01:12;;;;;;;8.65;4.72;;;;;;;;;;5069627;28;20533;-75
2023/06/05 01:03:44;;;;;;;7.50;4.45;;;;;;;;;;5086619;28;20071;-74
2023/06/05 01:06:17;;;;;;;9.90;4.20;;;;;;;;;;5087446;28;20052;-74
2023/06/05 01:08:50;;;;;;;8.15;4.82;;;;;;;;;;5087937;28;20083;-74
2023/06/05 01:11:38;;;;;;;6.70;4.32;;;;;;;;;;5087299;28;20407;-76
2023/06/05 01:14:27;;;;;;;11.68;4.95;;;;;;;;;;5088176;28;20071;-74
2023/06/05 01:17:02;;;;;;;10.00;4.82;;;;;;;;;;5088275;28;20048;-75
2023/06/05 01:19:33;;;;;;;;;;;;;;;;;;5088108;28;20048;-76
2023/06/05 01:22:02;;;;;;;12.00;4.07;;;;;;;;;;5088150;28;19927;-76
2023/06/05 01:24:35;;;;;;;8.35;4.68;;;;;;;;;;5085896;28;20040;-75
2023/06/05 01:27:40;;;;;;;6.93;4.75;;;;;;;;;;5087910;28;20055;-74
2023/06/05 01:30:24;;;;;;;7.47;4.38;;;;;;;;;;5033771;28;20082;-77
2023/06/05 01:33:02;;;;;;;7.72;4.53;;;;;;;;;;5068630;28;20427;-75
2023/06/05 01:35:35;;;;;;;7.07;3.75;;;;;;;;;;5087328;28;20048;-76
2023/06/05 01:38:09;;;;;;;10.57;4.60;;;;;;;;;;5088046;28;20059;-75
2023/06/05 01:40:40;;;;;;;11.45;4.55;;;;;;;;;;5087824;28;20416;-77
2023/06/05 01:43:12;;;;;;;12.35;4.43;;;;;;;;;;5088225;28;20620;-75
2023/06/05 01:45:44;;;;;;;9.85;4.80;;;;;;;;;;5086991;28;20051;-77
2023/06/05 01:48:15;;;;;;;9.05;4.38;;;;;;;;;;5068517;28;20514;-75
2023/06/05 01:50:46;;;;;;;10.25;4.75;;;;;;;;;;5087557;28;20056;-78
2023/06/05 01:53:16;;;;;;;8.73;4.80;;;;;;;;;;5087489;28;20055;-75
2023/06/05 01:55:49;;;;;;;7.15;4.40;;;;;;;;;;5087463;28;20059;-76
2023/06/05 01:58:21;;;;;;;7.88;4.85;;;;;;;;;;5087308;28;20044;-75
2023/06/05 02:00:56;;;;;;;8.88;5.00;;;;;;;;;;5085390;28;20052;-75
2023/06/05 02:03:27;;;;;;;6.78;4.47;;;;;;;;;;5085473;28;20060;-75
2023/06/05 02:06:00;;;;;;;11.32;4.60;;;;;;;;;;5085235;28;20050;-76
2023/06/05 02:08:30;;;;;;;8.80;4.43;;;;;;;;;;5086901;28;20051;-77
2023/06/05 02:11:02;;;;;;;6.90;4.43;;;;;;;;;;5069008;28;20056;-75
2023/06/05 02:13:33;;;;;;;13.02;4.68;;;;;;;;;;5086410;28;20048;-76
2023/06/05 02:16:07;;;;;;;12.73;4.47;;;;;;;;;;5069803;28;20048;-75
2023/06/05 02:18:37;;;;;;;16.77;4.90;;;;;;;;;;5068680;28;20051;-77
2023/06/05 02:21:10;;;;;;;13.57;4.85;;;;;;;;;;5068467;28;20056;-76
2023/06/05 02:23:39;;;;;;;17.65;5.03;;;;;;;;;;5086044;28;20044;-75
2023/06/05 02:26:11;;;;;;;14.02;4.45;;;;;;;;;;5086887;28;20499;-76
2023/06/05 02:28:43;;;;;;;9.85;4.75;;;;;;;;;;5086424;28;20048;-75
2023/06/05 02:31:15;;;;;;;7.20;4.13;;;;;;;;;;5068154;28;20525;-77
2023/06/05 02:33:46;;;;;;;10.63;5.05;;;;;;;;;;5086818;28;20553;-76
2023/06/05 02:36:16;;;;;;;6.57;4.25;;;;;;;;;;5085049;28;20422;-77
2023/06/05 02:38:51;;;;;;;6.80;4.40;;;;;;;;;;5067508;28;20514;-76
2023/06/05 02:41:23;;;;;;;8.07;4.60;;;;;;;;;;5084078;28;20055;-76
2023/06/05 02:43:57;;;;;;;15.52;4.60;;;;;;;;;;5085270;28;20048;-75
2023/06/05 02:46:28;;;;;;;8.35;4.60;;;;;;;;;;5067903;28;20426;-76
2023/06/05 02:49:00;;;;;;;8.80;4.60;;;;;;;;;;5086769;28;20074;-76
2023/06/05 02:51:31;;;;;;;9.18;4.55;;;;;;;;;;5067885;28;20064;-77
2023/06/05 02:54:01;;;;;;;8.98;4.68;;;;;;;;;;5067318;28;20048;-75
2023/06/05 02:56:32;;;;;;;10.07;4.70;;;;;;;;;;5085735;28;20056;-76
2023/06/05 02:59:03;;;;;;;8.43;4.15;;;;;;;;;;5066600;28;20075;-75
2023/06/05 03:01:35;;;;;;;8.68;4.25;;;;;;;;;;5086719;28;20517;-76
2023/06/05 03:04:10;;;;;;;7.63;4.10;;;;;;;;;;5084798;28;20048;-77
2023/06/05 03:06:43;;;;;;;9.77;4.32;;;;;;;;;;5067529;28;20421;-76
2023/06/05 03:09:17;;;;;;;9.13;4.40;;;;;;;;;;5066796;28;20541;-76
2023/06/05 03:11:47;;;;;;;7.22;4.18;;;;;;;;;;5083402;28;20056;-75
2023/06/05 03:14:18;;;;;;;6.60;4.47;;;;;;;;;;5067218;28;20056;-76
2023/06/05 03:16:50;;;;;;;7.38;4.72;;;;;;;;;;5067011;28;20055;-76
2023/06/05 03:19:21;;;;;;;9.00;4.55;;;;;;;;;;5067265;28;20059;-77
2023/06/05 03:21:53;;;;;;;9.73;3.97;;;;;;;;;;5066904;28;20082;-76
2023/06/05 03:24:24;;;;;;;10.65;4.50;;;;;;;;;;5066885;28;20063;-77
2023/06/05 03:27:04;;;;;;;14.30;4.97;;;;;;;;;;5083392;28;20059;-75
2023/06/05 03:29:35;;;;;;;12.90;4.88;;;;;;;;;;5085302;28;20050;-76
2023/06/05 03:32:07;;;;;;;12.18;4.82;;;;;;;;;;5085127;28;20403;-77
2023/06/05 03:34:38;;;;;;;10.57;5.50;;;;;;;;;;5066686;28;20072;-76
2023/06/05 03:37:09;;;;;;;7.72;4.82;;;;;;;;;;5066621;28;20067;-77
2023/06/05 03:39:39;;;;;;;10.60;4.90;;;;;;;;;;5085728;28;20518;-76
2023/06/05 03:42:11;;;;;;;9.23;5.10;;;;;;;;;;5066803;28;20044;-76
2023/06/05 03:44:41;;;;;;;15.32;5.47;;;;;;;;;;5066379;28;20553;-75
2023/06/05 03:47:14;;;;;;;7.32;4.80;;;;;;;;;;5083364;28;20058;-76
2023/06/05 03:49:47;;;;;;;9.85;4.88;;;;;;;;;;5085259;28;20059;-76
2023/06/05 03:52:23;;;;;;;6.80;4.47;;;;;;;;;;5066953;28;20063;-77
2023/06/05 03:54:55;;;;;;;8.85;4.85;;;;;;;;;;5085425;28;20056;-76
2023/06/05 03:57:26;;;;;;;8.80;4.82;;;;;;;;;;5066636;28;20091;-78
2023/06/05 03:59:56;;;;;;;9.02;4.70;;;;;;;;;;5067275;28;20055;-75
2023/06/05 04:02:29;;;;;;;10.20;4.85;;;;;;;;;;5084957;28;20051;-75
2023/06/05 04:05:00;;;;;;;13.63;6.07;;;;;;;;;;5085210;28;20054;-76
2023/06/05 04:07:32;;;;;;;11.45;4.65;;;;;;;;;;5085007;28;20414;-76
2023/06/05 04:10:04;;;;;;;7.32;4.82;;;;;;;;;;5084729;28;20063;-75
2023/06/05 04:12:34;;;;;;;10.38;5.25;;;;;;;;;;5085444;28;20097;-78
2023/06/05 04:15:06;;;;;;;9.93;5.07;;;;;;;;;;5083350;28;20052;-75
2023/06/05 04:17:43;;;;;;;8.70;4.70;;;;;;;;;;5066145;28;20414;-76
2023/06/05 04:20:15;;;;;;;8.30;4.63;;;;;;;;;;5066122;28;20048;-75
2023/06/05 04:22:47;;;;;;;5.45;4.25;;;;;;;;;;5066490;28;20048;-75
2023/06/05 04:25:17;;;;;;;6.72;4.30;;;;;;;;;;5066753;28;20044;-77
2023/06/05 04:27:51;;;;;;;8.70;5.13;;;;;;;;;;5066404;28;20057;-75
2023/06/05 04:30:25;;;;;;;9.55;5.05;;;;;;;;;;5066187;28;20056;-75
2023/06/05 04:32:55;;;;;;;8.50;5.40;;;;;;;;;;5066166;28;20564;-76
2023/06/05 04:35:27;;;;;;;7.57;4.60;;;;;;;;;;5066000;28;20048;-75
2023/06/05 04:38:00;;;;;;;9.63;4.93;;;;;;;;;;5082926;28;20723;-75
2023/06/05 04:40:32;;;;;;;7.10;5.03;;;;;;;;;;5083345;28;20056;-74
2023/06/05 04:43:03;;;;;;;9.50;5.25;;;;;;;;;;5084513;28;20037;-76
2023/06/05 04:45:33;;;;;;;8.75;5.28;;;;;;;;;;5084214;28;20392;-75
2023/06/05 04:48:03;;;;;;;7.18;5.05;;;;;;;;;;5065955;28;20403;-76
2023/06/05 04:50:35;;;;;;;8.95;5.13;;;;;;;;;;5084600;28;20059;-76
2023/06/05 04:53:10;;;;;;;12.25;5.40;;;;;;;;;;5066083;28;20060;-76
2023/06/05 04:55:44;;;;;;;10.63;5.30;;;;;;;;;;5082722;28;20525;-76
2023/06/05 04:58:19;;;;;;;9.05;4.75;;;;;;;;;;5066314;28;20051;-76
2023/06/05 05:00:52;;;;;;;10.68;5.40;;;;;;;;;;5083376;28;20521;-76
2023/06/05 05:03:22;;;;;;;9.05;4.97;;;;;;;;;;5082904;28;20063;-76
2023/06/05 05:05:52;;;;;;;8.85;4.43;;;;;;;;;;5084222;28;20048;-75
2023/06/05 05:08:22;;;;;;;7.75;4.93;;;;;;;;;;5066096;28;20063;-75
2023/06/05 05:10:53;;;;;;;17.75;5.30;;;;;;;;;;5084938;28;20052;-76
2023/06/05 05:13:24;;;;;;;9.23;4.60;;;;;;;;;;5065823;28;20044;-75
2023/06/05 05:15:55;;;;;;;7.97;4.40;;;;;;;;;;5066120;28;20067;-76
2023/06/05 05:18:28;;;;;;;8.02;4.55;;;;;;;;;;5065371;28;20498;-76
2023/06/05 05:20:59;;;;;;;7.30;4.63;;;;;;;;;;5066886;28;20054;-75
2023/06/05 05:23:33;;;;;;;9.30;4.88;;;;;;;;;;5086053;28;20537;-76
2023/06/05 05:26:07;;;;;;;10.05;4.40;;;;;;;;;;5069288;28;20055;-75
2023/06/05 05:28:37;;;;;;;6.88;4.60;;;;;;;;;;5068959;28;20044;-76
2023/06/05 05:31:07;;;;;;;6.45;4.53;;;;;;;;;;5087648;28;20414;-75
2023/06/05 05:33:39;;;;;;;10.20;5.10;;;;;;;;;;5069287;28;20522;-75
2023/06/05 05:36:11;;;;;;;11.07;4.70;;;;;;;;;;5068943;28;20040;-76
2023/06/05 05:38:41;;;;;;;8.02;4.95;;;;;;;;;;5069074;28;20063;-75
2023/06/05 05:41:12;;;;;;;9.90;6.78;;;;;;;;;;5087262;28;20063;-77
2023/06/05 05:43:43;;;;;;;15.45;9.68;;;;;;;;;;5087922;28;20059;-76
2023/06/05 05:46:14;;;;;;;13.85;9.70;;;;;;;;;;5087812;28;20040;-76
2023/06/05 05:48:44;;;;;;;14.13;7.97;;;;;;;;;;5087652;28;20036;-75
2023/06/05 05:51:16;;;;;;;17.88;9.75;;;;;;;;;;5087792;28;20051;-75
2023/06/05 05:53:47;;;;;;;21.23;10.70;;;;;;;;;;5087583;28;20044;-77
2023/06/05 05:56:18;;;;;;;16.92;8.65;;;;;;;;;;5087053;28;20048;-76
2023/06/05 05:58:48;;;;;;;12.15;8.63;;;;;;;;;;5087165;28;20047;-76
2023/06/05 06:01:18;;;;;;;14.82;10.13;;;;;;;;;;5085839;28;20051;-76
2023/06/05 06:03:49;;;;;;;17.88;11.63;;;;;;;;;;5087341;28;20036;-74
2023/06/05 06:06:20;;;;;;;15.95;10.30;;;;;;;;;;5087184;28;20075;-77
2023/06/05 06:08:49;;;;;;;16.83;11.10;;;;;;;;;;5087521;28;20059;-75
2023/06/05 06:11:21;;;;;;;20.05;11.70;;;;;;;;;;5086884;28;20055;-75
2023/06/05 06:13:52;;;;;;;21.70;11.65;;;;;;;;;;5087085;28;20388;-76
2023/06/05 06:16:22;;;;;;;17.73;11.25;;;;;;;;;;5087277;28;20549;-76
2023/06/05 06:18:52;;;;;;;18.70;10.75;;;;;;;;;;5086893;28;20047;-76
2023/06/05 06:21:23;;;;;;;17.77;12.02;;;;;;;;;;5086818;28;20044;-76
2023/06/05 06:23:57;;;;;;;14.73;10.38;;;;;;;;;;5087037;28;20851;-77
2023/06/05 06:26:27;;;;;;;17.80;10.75;;;;;;;;;;5086943;28;20422;-76
2023/06/05 06:28:59;;;;;;;17.73;10.30;;;;;;;;;;5085372;28;20047;-76
2023/06/05 06:31:29;;;;;;;14.80;9.57;;;;;;;;;;5086098;28;20059;-76
2023/06/05 06:33:59;;;;;;;15.55;9.73;;;;;;;;;;5086560;28;20051;-75
2023/06/05 06:36:30;;;;;;;16.70;9.80;;;;;;;;;;5086604;28;20058;-76
2023/06/05 06:39:00;;;;;;;16.08;9.63;;;;;;;;;;5068993;28;20048;-77
2023/06/05 06:41:31;;;;;;;17.63;9.48;;;;;;;;;;5087036;28;20406;-76
2023/06/05 06:44:03;;;;;;;13.32;8.95;;;;;;;;;;5086463;28;20048;-76
2023/06/05 06:46:35;;;;;;;13.68;8.05;;;;;;;;;;5086604;28;20418;-75
2023/06/05 06:49:06;;;;;;;17.05;8.38;;;;;;;;;;5086388;28;20048;-77
2023/06/05 06:51:36;;;;;;;12.35;8.10;;;;;;;;;;5085904;28;20052;-76
2023/06/05 06:54:08;;;;;;;14.75;8.10;;;;;;;;;;5086063;28;20048;-77
2023/06/05 06:56:42;;;;;;;18.25;8.10;;;;;;;;;;5086460;28;20541;-76
2023/06/05 06:59:13;;;;;;;11.38;6.85;;;;;;;;;;5085931;28;20044;-75
2023/06/05 07:01:48;;;;;;;11.77;7.20;;;;;;;;;;5086324;28;20063;-76
2023/06/05 07:04:21;;;;;;;11.57;7.57;;;;;;;;;;5085200;28;20055;-75
2023/06/05 07:06:51;;;;;;;10.63;7.75;;;;;;;;;;5086093;28;20398;-75
2023/06/05 07:09:21;;;;;;;11.95;7.35;;;;;;;;;;5086001;28;20048;-76
2023/06/05 07:11:51;;;;;;;12.50;7.50;;;;;;;;;;5086011;28;20059;-77
2023/06/05 07:14:24;;;;;;;14.68;7.47;;;;;;;;;;5085421;28;20056;-76
2023/06/05 07:16:56;;;;;;;10.52;6.22;;;;;;;;;;5085729;28;20498;-77
2023/06/05 07:19:30;;;;;;;14.65;7.25;;;;;;;;;;5085413;28;20051;-76
2023/06/05 07:22:04;;;;;;;14.43;7.32;;;;;;;;;;5086160;28;20056;-76
2023/06/05 07:24:41;;;;;;;15.23;7.88;;;;;;;;;;5067606;28;20047;-76
2023/06/05 07:27:13;;;;;;;13.32;7.60;;;;;;;;;;5085706;28;20048;-75
2023/06/05 07:29:46;;;;;;;13.50;8.20;;;;;;;;;;5085549;28;20044;-77
2023/06/05 07:32:20;;;;;;;10.82;8.00;;;;;;;;;;5085695;28;20052;-76
2023/06/05 07:34:51;;;;;;;12.48;8.27;;;;;;;;;;5084021;28;20067;-76
2023/06/05 07:37:22;;;;;;;18.08;8.65;;;;;;;;;;5085255;28;20055;-76
2023/06/05 07:39:54;;;;;;;13.40;7.57;;;;;;;;;;5085370;28;20059;-76
2023/06/05 07:42:24;;;;;;;12.75;8.80;;;;;;;;;;5085596;28;20063;-76
2023/06/05 07:44:55;;;;;;;11.75;7.78;;;;;;;;;;5085308;28;20055;-77
2023/06/05 07:47:27;;;;;;;13.48;8.07;;;;;;;;;;5085403;28;20040;-77
2023/06/05 07:50:04;;;;;;;13.40;7.85;;;;;;;;;;5085393;28;20414;-76
2023/06/05 07:52:37;;;;;;;12.98;7.68;;;;;;;;;;5085184;28;20049;-77
2023/06/05 07:55:11;;;;;;;15.05;8.07;;;;;;;;;;5084507;28;20044;-76
2023/06/05 07:57:41;;;;;;;13.13;7.85;;;;;;;;;;5085143;28;20052;-75
2023/06/05 08:00:13;;;;;;;11.65;7.35;;;;;;;;;;5083145;28;20530;-76
2023/06/05 08:02:43;;;;;;;14.45;7.03;;;;;;;;;;5086934;28;20055;-76
2023/06/05 08:05:15;;;;;;;14.50;7.25;;;;;;;;;;5084650;28;20048;-76
2023/06/05 08:07:47;;;;;;;14.32;7.28;;;;;;;;;;5084966;28;20067;-77
2023/06/05 08:10:17;;;;;;;13.27;7.07;;;;;;;;;;5067478;28;20055;-77
2023/06/05 08:12:47;;;;;;;11.00;7.15;;;;;;;;;;5084898;28;20048;-76
2023/06/05 08:15:17;;;;;;;13.52;7.93;;;;;;;;;;5084727;28;20499;-76
2023/06/05 08:17:49;;;;;;;13.00;7.15;;;;;;;;;;5085077;28;20048;-76
2023/06/05 08:20:21;;;;;;;13.30;7.97;;;;;;;;;;5085381;28;20052;-76
2023/06/05 08:22:51;;;;;;;24.13;8.82;;;;;;;;;;5085124;28;20628;-76
2023/06/05 08:25:21;;;;;;;12.65;8.43;;;;;;;;;;5084792;28;20048;-75
2023/06/05 08:27:51;;;;;;;11.45;7.57;;;;;;;;;;5084512;28;20532;-75
2023/06/05 08:30:23;;;;;;;13.02;8.40;;;;;;;;;;5066063;28;20060;-76
2023/06/05 08:32:55;;;;;;;14.88;8.00;;;;;;;;;;5085046;28;20389;-76
2023/06/05 08:35:25;;;;;;;16.88;7.90;;;;;;;;;;5084726;28;20403;-76
2023/06/05 08:37:55;;;;;;;15.35;8.48;;;;;;;;;;5084934;28;20043;-76
2023/06/05 08:40:28;;;;;;;11.15;7.60;;;;;;;;;;5084740;28;20051;-76
2023/06/05 08:43:01;;;;;;;13.10;7.70;;;;;;;;;;5084312;28;20094;-75
2023/06/05 08:45:33;;;;;;;15.23;7.55;;;;;;;;;;5085006;28;20047;-75
2023/06/05 08:48:05;;;;;;;19.58;8.38;;;;;;;;;;5084802;28;20059;-76
2023/06/05 08:50:38;;;;;;;12.93;8.57;;;;;;;;;;5084574;28;20040;-74
2023/06/05 08:53:12;;;;;;;9.88;7.60;;;;;;;;;;5084604;28;20055;-75
2023/06/05 08:55:51;;;;;;;15.05;9.57;;;;;;;;;;5085518;28;20534;-77
2023/06/05 08:58:21;;;;;;;15.73;8.23;;;;;;;;;;5069742;28;20052;-76
2023/06/05 09:00:52;;;;;;;13.65;8.23;;;;;;;;;;5088530;28;20047;-77
2023/06/05 09:03:23;;;;;;;12.30;8.25;;;;;;;;;;5088437;28;20051;-76
2023/06/05 09:05:55;;;;;;;13.07;8.48;;;;;;;;;;5069497;28;20052;-76
2023/06/05 09:08:33;;;;;;;15.20;8.63;;;;;;;;;;5088205;28;20070;-77
2023/06/05 09:11:26;;;;;;;12.95;7.95;;;;;;;;;;5088680;28;20048;-76
2023/06/05 09:14:00;;;;;;;12.95;8.20;;;;;;;;;;5087832;28;20070;-77
2023/06/05 09:16:37;;;;;;;10.77;8.48;;;;;;;;;;5088169;28;20048;-75
2023/06/05 09:19:10;;;;;;;10.70;7.68;;;;;;;;;;5088094;28;20056;-77
2023/06/05 09:21:41;;;;;;;12.77;8.02;;;;;;;;;;5088578;28;20585;-78
2023/06/05 09:24:18;;;;;;;10.15;7.32;;;;;;;;;;5108405;28;20059;-78
2023/06/05 09:26:49;;;;;;;15.05;7.80;;;;;;;;;;5109302;28;20039;-78
2023/06/05 09:29:29;;;;;;;16.10;7.53;;;;;;;;;;5107952;28;20508;-77
2023/06/05 09:32:01;;;;;;;11.73;7.55;;;;;;;;;;5108142;28;20418;-77
2023/06/05 09:34:38;;;;;;;9.77;6.82;;;;;;;;;;5107945;28;20047;-77
2023/06/05 09:37:11;;;;;;;12.48;6.90;;;;;;;;;;5108369;28;20054;-75
2023/06/05 09:39:46;;;;;;;10.60;7.35;;;;;;;;;;5089899;28;20054;-75
2023/06/05 09:42:17;;;;;;;11.18;7.30;;;;;;;;;;5108234;28;20044;-76
2023/06/05 09:45:00;;;;;;;13.77;7.25;;;;;;;;;;5108186;28;20036;-76
2023/06/05 09:47:30;;;;;;;12.75;6.68;;;;;;;;;;5107800;28;20858;-77
2023/06/05 09:50:24;;;;;;;12.90;7.57;;;;;;;;;;5107963;28;20506;-76
2023/06/05 09:52:56;;;;;;;11.45;7.40;;;;;;;;;;5107536;28;20051;-76
2023/06/05 09:55:28;;;;;;;14.25;7.00;;;;;;;;;;5107571;28;20055;-76
2023/06/05 09:58:03;;;;;;;7.82;4.47;;;;;;;;;;5107952;28;20055;-78
2023/06/05 10:00:33;;;;;;;6.90;3.40;;;;;;;;;;5108315;28;20048;-75
2023/06/05 10:03:07;;;;;;;5.18;3.70;;;;;;;;;;5072593;28;20055;-75
2023/06/05 10:05:44;;;;;;;4.57;2.97;;;;;;;;;;5107484;28;20044;-74
2023/06/05 10:08:16;;;;;;;4.57;2.88;;;;;;;;;;5106609;28;20501;-76
2023/06/05 10:10:47;;;;;;;5.35;3.03;;;;;;;;;;5107455;28;20043;-77
2023/06/05 10:13:18;;;;;;;5.38;2.95;;;;;;;;;;5107694;28;20444;-76
2023/06/05 10:15:52;;;;;;;5.65;2.90;;;;;;;;;;5107610;28;20513;-76
2023/06/05 10:18:23;;;;;;;5.72;2.95;;;;;;;;;;5107041;28;20055;-75
2023/06/05 10:20:57;;;;;;;3.85;2.53;;;;;;;;;;5107391;28;20043;-75
2023/06/05 10:23:28;;;;;;;4.85;2.40;;;;;;;;;;5107551;28;20048;-76
2023/06/05 10:26:02;;;;;;;6.15;2.45;;;;;;;;;;5106586;28;20047;-78
2023/06/05 10:28:54;;;;;;;5.53;2.50;;;;;;;;;;5107083;28;20043;-75
2023/06/05 10:31:52;;;;;;;4.05;2.20;;;;;;;;;;5106586;28;20039;-77
2023/06/05 10:34:48;;;;;;;3.83;1.88;;;;;;;;;;5106907;28;20514;-75
2023/06/05 10:37:38;;;;;;;3.83;1.95;;;;;;;;;;5106848;28;20547;-75
2023/06/05 10:40:10;;;;;;;4.15;1.90;;;;;;;;;;5107033;28;20054;-76
2023/06/05 10:42:41;;;;;;;4.60;1.80;;;;;;;;;;5106713;28;20043;-76
2023/06/05 10:45:11;;;;;;;6.10;1.52;;;;;;;;;;5106765;28;20054;-76
2023/06/05 10:48:00;;;;;;;4.78;1.77;;;;;;;;;;5107221;28;20050;-77
2023/06/05 10:50:31;;;;;;;5.90;1.65;;;;;;;;;;5105889;28;20533;-76
2023/06/05 10:53:02;;;;;;;6.25;1.60;;;;;;;;;;5106688;28;20055;-76
2023/06/05 10:55:43;;;;;;;5.72;1.70;;;;;;;;;;5106399;28;20490;-77
2023/06/05 10:58:15;;;;;;;6.03;1.70;;;;;;;;;;5106260;28;20054;-76
2023/06/05 11:01:19;;;;;;;5.80;1.80;;;;;;;;;;5106664;28;20043;-76
2023/06/05 11:03:56;;;;;;;6.25;1.60;;;;;;;;;;5054873;28;20062;-77
2023/06/05 11:06:27;;;;;;;;;;;;;;;;;;5106900;28;20043;-77
2023/06/05 11:09:13;;;;;;;5.32;1.25;;;;;;;;;;5088098;28;19927;-77
2023/06/05 11:12:01;;;;;;;7.45;1.80;;;;;;;;;;5087395;28;20063;-77
2023/06/05 11:14:48;;;;;;;4.63;1.63;;;;;;;;;;5106207;28;20048;-76
2023/06/05 11:17:33;;;;;;;4.72;1.55;;;;;;;;;;5106451;28;20039;-76
2023/06/05 11:20:30;;;;;;;4.55;1.95;;;;;;;;;;5106322;28;20055;-75
2023/06/05 11:23:02;;;;;;;6.70;1.85;;;;;;;;;;5097738;28;20066;-76
2023/06/05 11:25:32;;;;;;;5.22;1.70;;;;;;;;;;5106125;28;20056;-76
2023/06/05 11:28:07;;;;;;;11.77;2.22;;;;;;;;;;5106145;28;20391;-75
2023/06/05 11:30:45;;;;;;;13.90;3.60;;;;;;;;;;5106091;28;20058;-75
2023/06/05 11:33:23;;;;;;;3.08;1.45;;;;;;;;;;5105651;28;20055;-75
2023/06/05 11:36:00;;;;;;;4.82;1.63;;;;;;;;;;5105735;28;20048;-77
2023/06/05 11:38:32;;;;;;;7.93;2.17;;;;;;;;;;5105864;28;20044;-76
2023/06/05 11:41:08;;;;;;;4.43;1.98;;;;;;;;;;5106018;28;20048;-75
2023/06/05 11:43:45;;;;;;;7.38;2.00;;;;;;;;;;5105253;28;20047;-75
2023/06/05 11:46:16;;;;;;;8.65;2.95;;;;;;;;;;5105036;28;20383;-75
2023/06/05 11:48:47;;;;;;;5.05;2.17;;;;;;;;;;5105275;28;20050;-75
2023/06/05 11:51:18;;;;;;;7.60;2.10;;;;;;;;;;5105981;28;20525;-75
2023/06/05 11:53:49;;;;;;;6.07;1.85;;;;;;;;;;5105818;28;20051;-75
2023/06/05 11:56:21;;;;;;;3.10;1.70;;;;;;;;;;5105696;28;20387;-76
2023/06/05 11:58:52;;;;;;;6.32;2.40;;;;;;;;;;5105724;28;20052;-75
2023/06/05 12:01:24;;;;;;;11.82;2.80;;;;;;;;;;5105610;28;20047;-77
2023/06/05 12:04:06;;;;;;;8.55;2.47;;;;;;;;;;5105368;28;20059;-77
2023/06/05 12:06:51;;;;;;;6.60;2.33;;;;;;;;;;5105789;28;20402;-76
2023/06/05 12:09:21;;;;;;;6.85;2.30;;;;;;;;;;5105536;28;20052;-74
2023/06/05 12:11:53;;;;;;;8.68;2.17;;;;;;;;;;5105900;28;20050;-75
2023/06/05 12:14:31;;;;;;;6.75;2.83;;;;;;;;;;5105310;28;20055;-74
2023/06/05 12:17:08;;;;;;;6.43;2.17;;;;;;;;;;5105559;28;20047;-77
2023/06/05 12:19:40;;;;;;;4.35;2.35;;;;;;;;;;5104892;28;20717;-77
2023/06/05 12:22:12;;;;;;;4.75;2.05;;;;;;;;;;5105223;28;20070;-75
2023/06/05 12:24:46;;;;;;;7.78;3.05;;;;;;;;;;5086220;28;20047;-75
2023/06/05 12:27:16;;;;;;;5.50;2.30;;;;;;;;;;5105927;28;20055;-74
2023/06/05 12:29:55;;;;;;;7.25;2.20;;;;;;;;;;5106624;28;20043;-75
2023/06/05 12:32:27;;;;;;;5.72;1.90;;;;;;;;;;5108924;28;20059;-76
2023/06/05 12:34:57;;;;;;;9.27;4.50;;;;;;;;;;5108951;28;20051;-74
2023/06/05 12:37:38;;;;;;;8.57;3.70;;;;;;;;;;5109837;28;20051;-75
2023/06/05 12:40:11;;;;;;;4.55;1.95;;;;;;;;;;5109462;28;20066;-76
2023/06/05 12:42:57;;;;;;;5.03;2.00;;;;;;;;;;5109699;28;20061;-74
2023/06/05 12:45:30;;;;;;;5.47;2.08;;;;;;;;;;5109306;28;20036;-75
2023/06/05 12:48:00;;;;;;;6.97;2.53;;;;;;;;;;5090678;28;20035;-76
2023/06/05 12:50:30;;;;;;;7.15;2.20;;;;;;;;;;5108657;28;20043;-77
2023/06/05 12:53:01;;;;;;;9.23;2.15;;;;;;;;;;5109531;28;20043;-75
2023/06/05 12:55:33;;;;;;;4.38;2.10;;;;;;;;;;5091372;28;20070;-77
2023/06/05 12:58:03;;;;;;;6.72;2.08;;;;;;;;;;5109156;28;20043;-76
2023/06/05 13:00:33;;;;;;;9.38;2.45;;;;;;;;;;5109128;28;20051;-76
2023/06/05 13:03:04;;;;;;;7.03;2.38;;;;;;;;;;5108398;28;20417;-78
2023/06/05 13:05:37;;;;;;;5.07;1.85;;;;;;;;;;5108615;28;20043;-74
2023/06/05 13:08:08;;;;;;;5.55;1.58;;;;;;;;;;5089678;28;20414;-76
2023/06/05 13:10:38;;;;;;;4.97;1.60;;;;;;;;;;5109081;28;20054;-75
2023/06/05 13:13:10;;;;;;;6.45;1.27;;;;;;;;;;5089539;28;20047;-75
2023/06/05 13:15:43;;;;;;;6.28;1.30;;;;;;;;;;5090867;28;20070;-77
2023/06/05 13:18:13;;;;;;;2.50;1.23;;;;;;;;;;5108694;28;20046;-73
2023/06/05 13:20:47;;;;;;;5.57;1.40;;;;;;;;;;5108243;28;20058;-76
2023/06/05 13:23:16;;;;;;;6.65;1.33;;;;;;;;;;5072632;28;20063;-76
2023/06/05 13:25:47;;;;;;;5.30;1.33;;;;;;;;;;5108421;28;20059;-75
2023/06/05 13:28:18;;;;;;;5.90;1.52;;;;;;;;;;5108213;28;20035;-77
2023/06/05 13:30:48;;;;;;;11.52;2.10;;;;;;;;;;5089407;28;20047;-77
2023/06/05 13:33:19;;;;;;;3.15;1.33;;;;;;;;;;5108339;28;20047;-77
2023/06/05 13:35:49;;;;;;;7.03;2.50;;;;;;;;;;5108501;28;20043;-75
2023/06/05 13:38:22;;;;;;;9.30;1.60;;;;;;;;;;5108205;28;20068;-77
2023/06/05 13:40:52;;;;;;;5.43;1.50;;;;;;;;;;5089263;28;20043;-74
2023/06/05 13:43:22;;;;;;;6.85;1.48;;;;;;;;;;5108112;28;20046;-76
2023/06/05 13:45:53;;;;;;;5.60;1.48;;;;;;;;;;5108399;28;20054;-76
2023/06/05 13:48:25;;;;;;;3.90;1.30;;;;;;;;;;5108423;28;20048;-76
2023/06/05 13:50:57;;;;;;;7.47;1.25;;;;;;;;;;5107679;28;20043;-75
2023/06/05 13:53:34;;;;;;;6.20;1.33;;;;;;;;;;5107738;28;20043;-76
2023/06/05 13:56:05;;;;;;;3.80;1.23;;;;;;;;;;5107389;28;20047;-78
2023/06/05 13:58:36;;;;;;;6.80;1.40;;;;;;;;;;5107933;28;20051;-77
2023/06/05 14:01:07;;;;;;;6.05;1.42;;;;;;;;;;5107830;28;20532;-76
2023/06/05 14:03:37;;;;;;;5.95;1.25;;;;;;;;;;5107401;28;20122;-76
2023/06/05 14:06:07;;;;;;;6.45;1.42;;;;;;;;;;5108188;28;20088;-76
2023/06/05 14:08:38;;;;;;;6.07;1.20;;;;;;;;;;5107208;28;20039;-75
2023/06/05 14:11:10;;;;;;;4.47;1.15;;;;;;;;;;5089655;28;20520;-75
2023/06/05 14:13:41;;;;;;;3.60;1.13;;;;;;;;;;5107373;28;20043;-77
2023/06/05 14:16:12;;;;;;;8.82;1.50;;;;;;;;;;5107992;28;20482;-75
2023/06/05 14:18:42;;;;;;;8.98;1.40;;;;;;;;;;5107371;28;20051;-76
2023/06/05 14:21:13;;;;;;;6.93;1.55;;;;;;;;;;5107720;28;20048;-76
2023/06/05 14:23:45;;;;;;;5.40;1.15;;;;;;;;;;5107328;28;20418;-79
2023/06/05 14:26:16;;;;;;;5.65;1.20;;;;;;;;;;5106943;28;20046;-76
2023/06/05 14:28:46;;;;;;;4.38;1.45;;;;;;;;;;5105647;28;20427;-76
2023/06/05 14:31:17;;;;;;;7.82;1.30;;;;;;;;;;5106942;28;20051;-76
2023/06/05 14:33:47;;;;;;;5.45;1.08;;;;;;;;;;5106542;28;20102;-76
2023/06/05 14:36:18;;;;;;;5.70;1.42;;;;;;;;;;5106747;28;20044;-75
2023/06/05 14:38:48;;;;;;;4.68;1.10;;;;;;;;;;5107146;28;20047;-79
2023/06/05 14:41:20;;;;;;;5.38;1.30;;;;;;;;;;5106731;28;20047;-76
2023/06/05 14:43:52;;;;;;;8.15;1.45;;;;;;;;;;5106824;28;20043;-76
2023/06/05 14:46:22;;;;;;;6.70;1.23;;;;;;;;;;5106815;28;20051;-77
2023/06/05 14:48:51;;;;;;;8.63;1.67;;;;;;;;;;5106695;28;20375;-76
2023/06/05 14:51:22;;;;;;;5.80;1.30;;;;;;;;;;5106742;28;20385;-77
2023/06/05 14:53:53;;;;;;;4.50;1.30;;;;;;;;;;5106775;28;20046;-75
2023/06/05 14:56:25;;;;;;;7.00;1.67;;;;;;;;;;5106286;28;20055;-76
2023/06/05 14:58:55;;;;;;;5.47;1.48;;;;;;;;;;5106538;28;20406;-78
2023/06/05 15:01:26;;;;;;;7.75;1.50;;;;;;;;;;5106621;28;20044;-77
2023/06/05 15:03:58;;;;;;;5.43;1.58;;;;;;;;;;5087655;28;20056;-77
2023/06/05 15:06:29;;;;;;;11.93;1.48;;;;;;;;;;5106197;28;20052;-77
2023/06/05 15:09:00;;;;;;;7.20;1.67;;;;;;;;;;5106901;28;20564;-77
2023/06/05 15:11:30;;;;;;;13.13;2.15;;;;;;;;;;5104967;28;20118;-75